Brownwood, TX

4:36 PM CDT on September 18, 2014 (GMT -0500)
Comanche | Change Station
CLOSE
Current Station
Airport
Location: Comanche,
Elevation: 1388 ft
Nearby Weather Stations

Elev 1388 ft 31.92 °N, 98.60 °W | Updated 21 minutes ago

Rain
Rain
81 °F
Feels Like 85 °F
N
7
Wind Variable Wind from ENE

Today
High -- | Low -- °F
--% Chance of Precip.
Yesterday
High -- | Low -- °F
Precip. -- in
7:21 AM 7:37 PM
Waning Crescent, 24% visible
Pressure 29.89 in
Visibility 10.0 miles
Clouds Mostly Cloudy 1800 ft
Heat Index 85 °F
Dew Point 72 °F
Humidity 73%
Rainfall 0.00 in
Snow Depth Not available.
UV 3 out of 12
Pollen 8.20 out of 12
Air Quality Not available.
Flu Activity Not available.
METAR KMKN 182115Z AUTO 06006KT 10SM BKN018 27/22 A2989 RMK AO2 LTG DSNT SW AND W T02730221

More Conditions Fewer Conditions

Pressure 29.89 in
Visibility 10.0 miles
Clouds Mostly Cloudy 1800 ft
Heat Index 85 °F
Dew Point 72 °F
Humidity 73%
Rainfall 0.00 in
Snow Depth Not available.
UV 3 out of 12
Pollen 8.20 out of 12
Air Quality Not available.
Flu Activity Not available.
METAR KMKN 182115Z AUTO 06006KT 10SM BKN018 27/22 A2989 RMK AO2 LTG DSNT SW AND W T02730221

More Conditions Fewer Conditions

Nowcast | as of 3:26 PM CDT on September 18, 2014

Through late afternoon....scattered showers and thunderstorms will continue to develop and move east...mainly north of a line from Mertzon, to Eden, to Mason. Light to moderate rainfall could cause ponding on roadways and low lying areas. Expect hourly rain totals up to one half inch.

×

10-Day Weather Forecast

Almanac

Astronomy

Sep. 18, 2014 Rise Set
Actual Time 7:21 AM CDT 7:37 PM CDT
Civil Twilight 6:57 AM CDT 8:02 PM CDT
Nautical Twilight 6:28 AM CDT 8:30 PM CDT
Astronomical Twilight 6:00 AM CDT 8:59 PM CDT
Moon 2:29 AM CDT 4:16 PM CDT
Length of Visible Light 13h 04m
Length of Day
12h 15m
Tomorrow will be 1m 55s shorter.
Waning Crescent, 24% of the Moon is Illuminated
Today
Waning Crescent
Sep 24
New
Oct 1
First Quarter
Oct 8
Full
Oct 15
Last Quarter

Today's Extremes

State Highs State Lows

Community

WunderPhotos

Upload Photos

1,754,452 photos uploaded!

WunderBlogs® & News

Nearby

Snow Depth

Station Depth Elevation
No new snow has been reported.

Earthquake Activity

City Distance Mag. Time & Date
No recent earthquake activity has been reported nearby.
Minimum magnitude displayed is 2.5.

Coastal Water Temperatures

Place Temperature
No Stations Reporting

Nearby Weather Stations